Time;durP1;ratioP1;P1;durP2;ratioP2;P2;SDS_P1;SDS_P2;PMS_P1;PMS_P2;Temp;Humidity;BMP_temperature;BMP_pressure;BME280_temperature;BME280_humidity;BME280_pressure;Samples;Min_cycle;Max_cycle;Signal;HPM_P1;HPM_P2
2023/02/19 00:01:24;;;;;;;16.87;10.60;;;;;;;8.83;65.79;95140.50;5092608;28;20925;-76
2023/02/19 00:03:52;;;;;;;15.03;10.70;;;;;;;8.78;65.75;95138.22;5073719;28;20499;-77
2023/02/19 00:06:22;;;;;;;13.97;9.03;;;;;;;8.73;65.79;95140.34;5092992;28;20448;-77
2023/02/19 00:08:49;;;;;;;12.57;8.93;;;;;;;8.62;66.27;95138.50;5093045;28;20972;-77
2023/02/19 00:11:17;;;;;;;13.60;8.93;;;;;;;8.54;66.64;95127.78;5092675;28;20925;-77
2023/02/19 00:13:46;;;;;;;12.50;9.63;;;;;;;8.46;66.81;95124.06;5092386;28;20882;-77
2023/02/19 00:16:15;;;;;;;12.13;8.57;;;;;;;8.35;67.04;95133.50;5092429;28;20489;-77
2023/02/19 00:18:43;;;;;;;14.83;9.07;;;;;;;8.33;67.31;95138.00;5092725;28;20704;-77
2023/02/19 00:21:10;;;;;;;16.83;10.20;;;;;;;8.23;67.85;95123.06;5092539;28;20449;-77
2023/02/19 00:23:38;;;;;;;17.20;9.87;;;;;;;8.17;68.24;95133.97;5023799;28;20428;-76
2023/02/19 00:26:07;;;;;;;12.63;8.73;;;;;;;8.15;68.41;95118.41;5092501;28;20471;-77
2023/02/19 00:28:35;;;;;;;15.00;9.37;;;;;;;8.20;67.97;95121.50;5092339;28;20925;-76
2023/02/19 00:31:06;;;;;;;13.93;9.83;;;;;;;8.23;68.02;95131.75;5092497;28;20499;-76
2023/02/19 00:33:32;;;;;;;16.00;10.60;;;;;;;8.28;67.61;95123.56;5092443;28;20443;-77
2023/02/19 00:36:00;;;;;;;14.20;8.93;;;;;;;8.28;67.59;95118.34;5092201;28;20484;-77
2023/02/19 00:38:27;;;;;;;21.63;9.20;;;;;;;8.25;67.75;95110.72;5092235;28;20933;-77
2023/02/19 00:40:55;;;;;;;14.33;9.10;;;;;;;8.26;67.72;95120.22;5092139;28;20536;-77
2023/02/19 00:43:22;;;;;;;11.30;8.40;;;;;;;8.26;67.60;95108.00;5092176;28;20444;-77
2023/02/19 00:45:49;;;;;;;12.30;8.20;;;;;;;8.18;67.52;95106.88;5092266;28;20449;-77
2023/02/19 00:48:15;;;;;;;14.90;9.67;;;;;;;8.18;67.58;95112.09;5092146;28;20456;-77
2023/02/19 00:50:42;;;;;;;13.53;9.13;;;;;;;8.17;68.29;95118.28;5091970;28;20449;-76
2023/02/19 00:53:09;;;;;;;14.17;9.70;;;;;;;8.16;68.25;95107.00;5091998;28;20456;-76
2023/02/19 00:55:36;;;;;;;13.00;9.00;;;;;;;8.13;68.04;95088.09;5091803;28;20530;-77
2023/02/19 00:58:04;;;;;;;17.70;9.40;;;;;;;8.07;68.19;95100.63;5091981;28;20445;-77
2023/02/19 01:00:32;;;;;;;14.00;9.23;;;;;;;7.98;68.58;95093.44;5091973;28;20837;-76
2023/02/19 01:02:59;;;;;;;19.53;9.10;;;;;;;7.82;69.20;95087.66;5091340;28;20505;-77
2023/02/19 01:05:25;;;;;;;14.90;8.63;;;;;;;7.81;69.32;95099.06;5091722;28;20445;-76
2023/02/19 01:07:52;;;;;;;15.33;9.60;;;;;;;7.76;69.58;95088.91;5091704;28;20563;-77
2023/02/19 01:10:19;;;;;;;14.30;9.87;;;;;;;7.77;69.60;95092.34;5091896;28;20441;-77
2023/02/19 01:12:46;;;;;;;13.43;10.27;;;;;;;7.81;70.24;95100.84;5091876;28;20452;-77
2023/02/19 01:15:14;;;;;;;13.90;9.30;;;;;;;7.80;69.49;95101.75;5072613;28;20546;-76
2023/02/19 01:17:41;;;;;;;13.57;9.80;;;;;;;7.81;69.84;95096.44;5091621;28;20778;-76
2023/02/19 01:20:08;;;;;;;15.77;9.30;;;;;;;7.83;69.70;95083.28;5091762;28;20783;-77
2023/02/19 01:22:35;;;;;;;14.90;8.73;;;;;;;7.85;69.54;95084.84;5091554;28;20786;-77
2023/02/19 01:25:02;;;;;;;14.73;9.17;;;;;;;7.84;69.29;95084.94;5091278;28;20864;-76
2023/02/19 01:27:29;;;;;;;11.37;8.73;;;;;;;7.89;68.82;95091.50;5091730;28;20452;-76
2023/02/19 01:29:55;;;;;;;14.70;10.43;;;;;;;7.90;68.98;95097.56;5091663;28;20440;-76
2023/02/19 01:32:23;;;;;;;19.00;9.57;;;;;;;7.87;69.18;95103.84;5091637;28;20440;-76
2023/02/19 01:34:50;;;;;;;20.40;12.00;;;;;;;7.80;68.87;95118.25;5091429;28;21017;-77
2023/02/19 01:37:17;;;;;;;20.17;11.53;;;;;;;7.75;69.18;95123.81;5091362;28;20440;-76
2023/02/19 01:39:44;;;;;;;22.30;13.57;;;;;;;7.71;69.13;95124.13;5091767;28;20458;-77
2023/02/19 01:42:15;;;;;;;18.70;11.87;;;;;;;7.70;68.97;95122.47;5091625;28;20455;-77
2023/02/19 01:45:19;;;;;;;26.23;13.00;;;;;;;7.65;69.35;95127.19;5091663;28;20459;-76
2023/02/19 01:47:49;;;;;;;19.83;11.53;;;;;;;7.59;69.53;95132.84;5091731;28;20451;-76
2023/02/19 01:50:16;;;;;;;31.50;10.80;;;;;;;7.52;69.67;95144.63;5091406;28;20445;-76
2023/02/19 01:52:43;;;;;;;20.60;11.67;;;;;;;7.38;70.19;95150.78;5091312;28;20452;-76
2023/02/19 01:55:12;;;;;;;16.60;9.43;;;;;;;7.35;70.33;95157.06;5091428;28;20894;-76
2023/02/19 01:57:45;;;;;;;16.73;9.03;;;;;;;7.23;71.44;95147.47;5091466;28;20451;-76
2023/02/19 02:00:15;;;;;;;16.73;9.70;;;;;;;7.23;71.77;95152.69;5091312;28;20956;-76
2023/02/19 02:02:45;;;;;;;13.80;8.83;;;;;;;7.24;71.71;95151.75;5091337;28;21007;-77
2023/02/19 02:05:20;;;;;;;17.20;9.23;;;;;;;7.27;71.75;95145.47;5091430;28;20445;-77
2023/02/19 02:10:31;;;;;;;15.40;9.43;;;;;;;7.23;71.54;95131.81;5091397;28;20477;-77
2023/02/19 02:12:58;;;;;;;12.43;9.10;;;;;;;7.24;72.17;95153.53;5091522;28;20440;-77
2023/02/19 02:15:33;;;;;;;17.03;9.30;;;;;;;7.19;71.46;95145.97;5093227;28;20559;-77
2023/02/19 02:18:06;;;;;;;17.43;8.60;;;;;;;7.26;71.22;95147.25;5075775;28;20480;-76
2023/02/19 02:20:50;;;;;;;23.73;10.83;;;;;;;7.27;71.21;95154.16;5094916;28;20445;-76
2023/02/19 02:23:23;;;;;;;14.83;9.53;;;;;;;7.21;70.98;95146.72;5094941;28;20504;-76
2023/02/19 02:26:22;;;;;;;17.33;10.23;;;;;;;7.20;71.37;95146.81;5094532;28;20470;-76
2023/02/19 02:29:26;;;;;;;19.80;9.30;;;;;;;7.04;72.00;95147.03;5094619;28;20455;-77
2023/02/19 02:31:58;;;;;;;17.27;8.87;;;;;;;6.98;72.56;95144.81;5091568;28;20455;-77
2023/02/19 02:34:28;;;;;;;13.27;9.80;;;;;;;6.97;73.37;95130.94;5094790;28;20501;-77
2023/02/19 02:36:57;;;;;;;11.30;8.00;;;;;;;7.00;73.21;95140.34;5094579;28;20491;-77
2023/02/19 02:39:27;;;;;;;15.27;10.57;;;;;;;6.99;72.96;95136.06;5094549;28;20496;-77
2023/02/19 02:45:33;;;;;;;13.70;8.27;;;;;;;7.09;73.26;95132.72;5094529;28;20800;-77
2023/02/19 02:47:43;;;;;;;10.03;8.33;;;;;;;7.14;73.04;95151.50;5094589;28;20436;-76
2023/02/19 02:50:17;;;;;;;10.87;8.17;;;;;;;7.16;73.13;95143.56;5094254;28;20522;-77
2023/02/19 02:55:44;;;;;;;17.20;9.33;;;;;;;7.12;72.45;95131.69;4993422;28;20477;-76
2023/02/19 02:58:13;;;;;;;12.60;7.90;;;;;;;7.17;73.12;95132.19;5031682;28;20456;-77
2023/02/19 03:03:32;;;;;;;14.43;8.23;;;;;;;7.26;71.94;95134.22;5031771;28;20562;-77
2023/02/19 03:06:04;;;;;;;15.50;8.67;;;;;;;7.23;71.87;95129.19;5031450;28;20524;-76
2023/02/19 03:08:36;;;;;;;17.60;8.70;;;;;;;7.24;72.38;95140.47;4982286;28;20468;-76
2023/02/19 03:19:27;;;;;;;15.70;9.70;;;;;;;7.27;71.97;95142.88;4972401;28;20516;-76
2023/02/19 03:21:59;;;;;;;10.43;8.27;;;;;;;7.28;71.95;95152.38;4972197;28;20456;-76
2023/02/19 03:27:16;;;;;;;22.50;12.00;;;;;;;7.24;71.64;95154.34;4971295;28;20441;-76
2023/02/19 03:29:45;;;;;;;15.47;9.60;;;;;;;7.26;71.77;95167.31;4971951;28;20454;-76
2023/02/19 03:32:18;;;;;;;16.97;10.57;;;;;;;7.25;72.41;95176.91;5019519;28;20883;-76
2023/02/19 03:34:52;;;;;;;15.40;9.60;;;;;;;7.27;71.78;95180.25;5030716;28;20512;-76
2023/02/19 03:37:24;;;;;;;29.10;12.63;;;;;;;7.22;71.89;95178.84;5030516;28;20479;-76
2023/02/19 03:39:52;;;;;;;19.87;11.57;;;;;;;7.14;72.14;95182.81;5030503;28;20453;-76
2023/02/19 03:42:30;;;;;;;13.57;8.93;;;;;;;7.12;72.04;95179.47;5030566;28;20438;-76
2023/02/19 03:45:10;;;;;;;8.50;7.10;;;;;;;7.13;72.52;95190.75;5030513;28;20454;-76
2023/02/19 03:47:47;;;;;;;14.70;9.00;;;;;;;7.13;72.63;95193.38;5030545;28;20504;-76
2023/02/19 03:50:19;;;;;;;15.70;9.90;;;;;;;7.10;72.31;95193.56;5030401;28;20910;-76
2023/02/19 03:52:58;;;;;;;14.33;9.37;;;;;;;7.12;72.31;95191.69;5040446;28;20435;-76
2023/02/19 03:55:32;;;;;;;14.43;10.47;;;;;;;7.10;72.03;95188.34;5092767;28;20443;-76
2023/02/19 03:58:07;;;;;;;15.73;9.80;;;;;;;7.09;72.21;95197.97;5092873;28;20530;-76
2023/02/19 04:00:39;;;;;;;17.80;10.23;;;;;;;7.02;72.20;95193.25;5092820;28;20994;-76
2023/02/19 04:03:12;;;;;;;15.50;8.70;;;;;;;6.97;72.46;95197.94;5092889;28;20846;-76
2023/02/19 04:05:47;;;;;;;13.63;8.53;;;;;;;6.94;72.03;95200.72;5092893;28;20526;-76
2023/02/19 04:08:16;;;;;;;16.60;9.00;;;;;;;6.83;72.77;95198.81;5057762;28;20505;-76
2023/02/19 04:10:46;;;;;;;14.07;8.73;;;;;;;6.87;72.72;95196.84;5092695;28;20435;-76
2023/02/19 04:13:18;;;;;;;12.73;8.17;;;;;;;6.87;72.20;95204.69;5092386;28;20447;-76
2023/02/19 04:15:47;;;;;;;15.10;10.07;;;;;;;6.86;72.46;95213.44;5092570;28;20486;-76
2023/02/19 04:18:17;;;;;;;16.50;9.27;;;;;;;6.87;72.88;95209.91;5092577;28;20446;-76
2023/02/19 04:20:47;;;;;;;17.07;9.77;;;;;;;6.88;72.61;95211.56;5092481;28;20865;-76
2023/02/19 04:23:17;;;;;;;15.47;9.17;;;;;;;6.91;72.24;95217.41;5092335;28;20500;-76
2023/02/19 04:25:47;;;;;;;17.00;10.67;;;;;;;6.95;72.53;95212.88;5092282;28;20874;-77
2023/02/19 04:28:15;;;;;;;13.67;9.50;;;;;;;6.99;72.26;95216.94;5092406;28;20435;-77
2023/02/19 04:30:42;;;;;;;10.90;7.83;;;;;;;6.97;72.22;95222.25;5092228;28;20479;-77
2023/02/19 04:33:09;;;;;;;10.47;8.23;;;;;;;6.90;71.83;95220.13;5092261;28;20504;-76
2023/02/19 04:35:35;;;;;;;10.97;8.97;;;;;;;6.77;71.42;95220.09;5092011;28;20867;-77
2023/02/19 04:38:04;;;;;;;14.40;7.57;;;;;;;6.68;71.71;95221.53;5092090;28;20937;-77
2023/02/19 04:40:30;;;;;;;12.50;8.27;;;;;;;6.63;72.36;95220.97;5056000;28;20444;-77
2023/02/19 04:42:57;;;;;;;12.43;7.30;;;;;;;6.60;76.42;95213.34;5093060;28;20438;-78
2023/02/19 04:45:24;;;;;;;16.73;9.10;;;;;;;6.65;80.65;95219.13;5093226;28;20447;-77
2023/02/19 04:47:51;;;;;;;15.13;8.93;;;;;;;6.67;76.68;95219.03;5092738;28;20455;-77
2023/02/19 04:50:18;;;;;;;13.80;9.40;;;;;;;6.61;75.41;95220.22;5092869;28;20443;-76
2023/02/19 04:52:44;;;;;;;13.37;9.57;;;;;;;6.62;76.09;95211.47;5092775;28;20926;-76
2023/02/19 04:55:13;;;;;;;12.53;9.90;;;;;;;6.65;76.47;95215.66;5092594;28;20447;-76
2023/02/19 04:57:39;;;;;;;20.20;8.87;;;;;;;6.65;76.56;95215.66;5092559;28;20490;-77
2023/02/19 05:00:08;;;;;;;16.60;9.47;;;;;;;6.67;76.34;95225.06;5057146;28;20440;-78
2023/02/19 05:02:35;;;;;;;19.87;10.40;;;;;;;6.66;77.22;95228.63;5092570;28;20987;-76
2023/02/19 05:05:02;;;;;;;12.30;8.70;;;;;;;6.70;75.81;95229.25;5092607;28;20535;-76
2023/02/19 05:07:29;;;;;;;18.67;9.03;;;;;;;6.67;75.78;95227.69;5092586;28;20439;-76
2023/02/19 05:09:57;;;;;;;20.07;12.27;;;;;;;6.62;75.57;95232.34;5088499;28;20985;-77
2023/02/19 05:12:25;;;;;;;14.90;10.40;;;;;;;6.61;75.47;95228.06;5074361;28;21323;-76
2023/02/19 05:14:52;;;;;;;12.60;9.10;;;;;;;6.61;75.21;95238.47;5092655;28;20439;-76
2023/02/19 05:17:18;;;;;;;19.30;10.33;;;;;;;6.52;75.36;95241.69;5090633;28;20523;-76
2023/02/19 05:19:45;;;;;;;19.00;9.60;;;;;;;6.46;74.95;95235.09;5081924;28;20490;-76
2023/02/19 05:22:12;;;;;;;16.97;10.47;;;;;;;6.38;75.36;95239.97;5089913;28;20488;-76
2023/02/19 05:24:39;;;;;;;18.77;9.97;;;;;;;6.34;75.96;95242.81;5089455;28;20475;-75
2023/02/19 05:27:06;;;;;;;14.90;9.10;;;;;;;6.32;76.35;95244.69;5068340;28;21587;-76
2023/02/19 05:29:34;;;;;;;14.87;9.67;;;;;;;6.34;76.47;95243.66;5091723;28;20998;-76
2023/02/19 05:32:01;;;;;;;20.80;10.93;;;;;;;6.40;76.45;95245.91;5092397;28;20467;-76
2023/02/19 05:34:27;;;;;;;66.87;11.20;;;;;;;6.47;76.99;95246.34;5091961;28;20446;-76
2023/02/19 05:36:54;;;;;;;21.13;10.80;;;;;;;6.56;75.82;95248.38;5091512;28;21011;-75
2023/02/19 05:39:21;;;;;;;15.67;11.40;;;;;;;6.67;75.50;95251.16;5072538;28;20845;-76
2023/02/19 05:41:47;;;;;;;16.73;11.00;;;;;;;6.74;75.30;95259.41;5091919;28;20448;-76
2023/02/19 05:44:14;;;;;;;14.40;10.87;;;;;;;6.93;74.53;95252.06;5091388;28;20839;-77
2023/02/19 05:46:42;;;;;;;20.20;11.00;;;;;;;7.25;74.36;95252.59;5091152;28;20501;-76
2023/02/19 05:49:09;;;;;;;21.17;12.10;;;;;;;7.54;73.00;95258.50;5092209;28;20451;-76
2023/02/19 05:51:36;;;;;;;19.70;10.67;;;;;;;7.74;71.48;95254.53;5075732;28;20441;-76
2023/02/19 05:54:03;;;;;;;20.80;12.93;;;;;;;7.94;70.57;95259.22;5095806;28;20459;-76
2023/02/19 05:56:33;;;;;;;26.53;13.33;;;;;;;8.22;70.23;95260.78;5095581;28;20538;-76
2023/02/19 05:59:02;;;;;;;25.07;12.97;;;;;;;8.62;68.81;95264.06;5094909;28;20468;-76
2023/02/19 06:01:30;;;;;;;19.40;11.13;;;;;;;8.93;69.87;95256.63;5095249;28;20449;-76
2023/02/19 06:03:58;;;;;;;18.53;11.17;;;;;;;9.36;71.73;95254.31;5096200;28;20526;-75
2023/02/19 06:06:26;;;;;;;17.33;11.90;;;;;;;9.84;75.66;95264.72;5095890;28;20449;-76
2023/02/19 06:08:54;;;;;;;23.73;13.23;;;;;;;10.48;70.46;95265.00;5095816;28;20439;-76
2023/02/19 06:11:21;;;;;;;19.57;11.53;;;;;;;11.09;70.67;95262.75;5095775;28;20455;-76
2023/02/19 06:13:49;;;;;;;27.97;15.13;;;;;;;11.56;63.13;95279.03;5095734;28;20443;-77
2023/02/19 06:16:16;;;;;;;21.57;13.63;;;;;;;11.82;63.78;95271.66;5095448;28;20496;-77
2023/02/19 06:18:43;;;;;;;16.00;12.00;;;;;;;12.14;68.80;95282.94;5076307;28;20531;-78
2023/02/19 06:21:12;;;;;;;18.17;11.63;;;;;;;12.33;64.85;95280.41;5059928;28;20501;-78
2023/02/19 06:23:39;;;;;;;17.40;10.70;;;;;;;12.41;58.57;95280.59;5095290;28;20839;-76
2023/02/19 06:26:08;;;;;;;19.70;10.00;;;;;;;12.47;58.69;95275.78;5095814;28;20480;-76
2023/02/19 06:28:35;;;;;;;22.17;10.57;;;;;;;12.40;59.03;95281.53;5092563;28;20474;-76
2023/02/19 06:31:02;;;;;;;21.40;10.80;;;;;;;12.25;57.62;95282.88;5084560;28;20497;-76
2023/02/19 06:33:28;;;;;;;21.83;11.00;;;;;;;12.20;61.25;95287.69;5088642;28;20448;-76
2023/02/19 06:35:58;;;;;;;18.40;10.93;;;;;;;12.23;62.09;95282.16;5094665;28;20455;-75
2023/02/19 06:38:26;;;;;;;21.10;10.20;;;;;;;12.18;60.45;95281.75;5094910;28;20439;-76
2023/02/19 06:40:53;;;;;;;22.43;11.87;;;;;;;12.16;63.20;95282.84;5059078;28;20444;-78
2023/02/19 06:43:20;;;;;;;25.93;11.73;;;;;;;12.05;60.80;95288.97;5094677;28;20497;-76
2023/02/19 06:45:46;;;;;;;26.50;11.83;;;;;;;11.96;59.96;95284.50;5089323;28;20475;-76
2023/02/19 06:48:13;;;;;;;20.97;11.37;;;;;;;11.88;58.72;95286.94;5087086;28;20501;-76
2023/02/19 06:50:40;;;;;;;30.53;17.77;;;;;;;11.94;57.86;95281.16;5094714;28;20447;-76
2023/02/19 06:53:07;;;;;;;48.83;23.60;;;;;;;12.03;57.66;95285.66;5082088;28;20444;-79
2023/02/19 06:55:35;;;;;;;65.07;27.77;;;;;;;12.17;57.82;95295.84;5075179;28;20446;-77
2023/02/19 06:58:02;;;;;;;67.73;24.00;;;;;;;12.22;57.22;95288.41;5061840;28;20488;-76
2023/02/19 07:00:29;;;;;;;42.63;22.63;;;;;;;12.31;57.27;95294.66;5093274;28;20787;-76
2023/02/19 07:02:56;;;;;;;49.23;21.00;;;;;;;12.44;56.70;95287.41;5085755;28;20443;-75
2023/02/19 07:05:23;;;;;;;33.60;18.87;;;;;;;12.65;56.91;95290.81;5079968;28;20936;-77
2023/02/19 07:07:50;;;;;;;54.17;18.87;;;;;;;12.88;57.85;95285.34;5067272;28;20448;-76
2023/02/19 07:10:17;;;;;;;37.87;16.10;;;;;;;12.97;55.92;95295.88;5093853;28;20554;-75
2023/02/19 07:12:45;;;;;;;33.50;15.40;;;;;;;13.05;55.81;95281.25;5092750;28;20510;-76
2023/02/19 07:15:12;;;;;;;35.83;21.30;;;;;;;13.25;57.09;95289.06;5083048;28;20463;-76
2023/02/19 07:17:38;;;;;;;43.97;21.70;;;;;;;13.49;55.24;95283.41;5080858;28;20979;-74
2023/02/19 07:20:06;;;;;;;51.27;26.33;;;;;;;13.71;54.12;95290.19;5087432;28;20497;-76
2023/02/19 07:22:32;;;;;;;46.13;20.20;;;;;;;13.93;53.19;95282.00;5073315;28;20441;-76
2023/02/19 07:24:59;;;;;;;43.10;18.57;;;;;;;14.09;52.94;95273.50;5093771;28;20552;-76
2023/02/19 07:27:26;;;;;;;45.87;22.40;;;;;;;14.20;51.80;95270.72;5093861;28;20498;-77
2023/02/19 07:29:54;;;;;;;36.60;16.13;;;;;;;14.25;51.20;95268.47;5073723;28;20450;-77
2023/02/19 07:32:21;;;;;;;28.93;16.40;;;;;;;14.24;51.60;95261.53;5060746;28;20436;-76
2023/02/19 07:34:48;;;;;;;20.60;13.63;;;;;;;14.14;50.70;95254.59;5082364;28;20455;-76
2023/02/19 07:37:14;;;;;;;16.67;11.37;;;;;;;14.05;50.43;95253.63;5078941;28;20487;-76
2023/02/19 07:39:41;;;;;;;13.13;8.00;;;;;;;14.04;51.14;95254.63;5075099;28;20446;-77
2023/02/19 07:42:08;;;;;;;29.03;7.57;;;;;;;13.88;50.29;95247.31;5077525;28;20449;-76
2023/02/19 07:44:34;;;;;;;8.43;7.20;;;;;;;13.88;50.67;95249.94;5084058;28;20492;-76
2023/02/19 07:47:03;;;;;;;9.77;7.00;;;;;;;13.91;51.11;95248.81;5075961;28;20502;-77
2023/02/19 07:49:29;;;;;;;14.07;8.43;;;;;;;13.94;50.75;95249.38;5093504;28;20476;-76
2023/02/19 07:51:56;;;;;;;6.83;6.23;;;;;;;13.86;50.25;95251.03;5075258;28;20448;-76
2023/02/19 07:54:23;;;;;;;9.10;6.37;;;;;;;13.74;50.56;95253.00;5050842;28;20504;-78
2023/02/19 07:56:50;;;;;;;11.20;6.60;;;;;;;13.64;50.74;95255.66;5083047;28;20983;-78
2023/02/19 07:59:18;;;;;;;7.80;6.17;;;;;;;13.52;51.51;95254.09;5093103;28;20445;-76
2023/02/19 08:04:30;;;;;;;13.33;7.00;;;;;;;13.61;54.79;95248.03;5083670;28;20426;-78
2023/02/19 08:06:56;;;;;;;16.90;7.43;;;;;;;13.69;50.96;95249.94;5074128;28;20451;-76
2023/02/19 08:09:23;;;;;;;17.80;8.70;;;;;;;13.82;50.63;95252.28;5079117;28;20450;-77
2023/02/19 08:14:34;;;;;;;9.60;6.37;;;;;;;14.08;56.89;95240.16;5072608;28;20484;-78
2023/02/19 08:17:02;;;;;;;13.57;7.30;;;;;;;14.17;49.87;95247.25;5073658;28;20978;-78
2023/02/19 08:19:30;;;;;;;11.60;7.23;;;;;;;14.23;48.65;95249.31;5093023;28;20454;-77
2023/02/19 08:21:56;;;;;;;8.70;6.90;;;;;;;14.35;53.66;95243.84;5074931;28;20447;-79
2023/02/19 08:24:23;;;;;;;16.10;7.17;;;;;;;14.41;53.00;95245.88;5072126;28;20458;-80
2023/02/19 08:26:50;;;;;;;12.43;6.73;;;;;;;14.49;48.65;95248.69;5072027;28;20447;-77
2023/02/19 08:29:17;;;;;;;22.83;8.47;;;;;;;14.54;48.84;95257.00;5072414;28;20436;-78
2023/02/19 08:31:44;;;;;;;13.27;7.60;;;;;;;14.72;48.80;95249.97;5071884;28;20452;-77
2023/02/19 08:34:12;;;;;;;14.83;8.50;;;;;;;14.83;47.89;95251.59;5072267;28;20444;-77
2023/02/19 08:36:41;;;;;;;8.80;6.07;;;;;;;14.86;46.68;95236.28;5072110;28;20452;-77
2023/02/19 08:39:08;;;;;;;9.97;7.47;;;;;;;14.98;46.60;95243.97;5072146;28;20452;-77
2023/02/19 08:41:34;;;;;;;10.50;6.73;;;;;;;15.11;46.89;95255.88;5071854;28;20501;-77
2023/02/19 08:44:01;;;;;;;9.53;7.43;;;;;;;15.28;51.26;95261.31;5071743;28;20509;-77
2023/02/19 08:46:28;;;;;;;14.10;6.40;;;;;;;15.38;46.32;95247.06;5071824;28;21186;-77
2023/02/19 08:48:55;;;;;;;9.37;6.00;;;;;;;15.43;46.38;95244.81;5072000;28;20452;-77
2023/02/19 08:51:21;;;;;;;8.93;7.80;;;;;;;15.58;45.79;95247.75;5071856;28;20455;-77
2023/02/19 08:53:50;;;;;;;7.60;6.20;;;;;;;15.78;47.70;95243.97;5071825;28;20448;-78
2023/02/19 08:56:17;;;;;;;12.53;5.80;;;;;;;15.93;52.51;95241.63;5071758;28;20440;-77
2023/02/19 08:58:44;;;;;;;18.40;7.20;;;;;;;15.97;45.21;95235.03;5071483;28;21072;-77
2023/02/19 09:01:13;;;;;;;14.50;6.40;;;;;;;16.05;45.79;95234.25;5071893;28;20502;-77
2023/02/19 09:03:40;;;;;;;7.03;6.30;;;;;;;16.09;44.56;95231.13;5072212;28;20461;-77
2023/02/19 09:06:07;;;;;;;9.40;6.93;;;;;;;16.01;44.56;95223.16;5071765;28;20450;-77
2023/02/19 09:08:34;;;;;;;7.53;5.93;;;;;;;16.13;44.00;95220.22;5071508;28;20935;-77
2023/02/19 09:11:05;;;;;;;11.07;7.10;;;;;;;16.19;44.52;95219.59;5071741;28;20507;-77
2023/02/19 09:13:32;;;;;;;7.60;6.60;;;;;;;16.22;44.24;95206.91;5071469;28;20930;-77
2023/02/19 09:15:59;;;;;;;8.30;6.97;;;;;;;16.23;44.03;95205.94;5071493;28;20864;-77
2023/02/19 09:18:26;;;;;;;16.50;7.80;;;;;;;16.20;43.67;95200.94;5052471;28;20914;-77
2023/02/19 09:20:53;;;;;;;11.00;7.17;;;;;;;16.31;43.98;95203.31;5052691;28;20453;-77
2023/02/19 09:23:20;;;;;;;7.83;6.87;;;;;;;16.21;44.43;95199.13;5071371;28;20442;-77
2023/02/19 09:25:47;;;;;;;14.80;9.33;;;;;;;16.15;44.08;95186.50;5074427;28;20475;-77
2023/02/19 09:28:15;;;;;;;13.60;7.17;;;;;;;16.03;44.51;95188.56;5075496;28;20451;-77
2023/02/19 09:30:42;;;;;;;11.73;7.13;;;;;;;16.08;44.12;95187.13;5075451;28;20538;-77
2023/02/19 09:33:09;;;;;;;10.10;6.67;;;;;;;16.03;44.25;95184.13;5075555;28;21051;-77
2023/02/19 09:35:39;;;;;;;15.60;7.27;;;;;;;16.21;44.57;95192.00;5075413;28;20950;-77
2023/02/19 09:38:06;;;;;;;10.20;6.63;;;;;;;16.36;44.41;95193.06;5075774;28;20480;-77
2023/02/19 09:40:35;;;;;;;14.53;7.20;;;;;;;16.40;44.67;95175.88;5074827;28;20529;-76
2023/02/19 09:43:06;;;;;;;9.33;6.80;;;;;;;16.24;44.90;95186.41;5075556;28;20450;-77
2023/02/19 09:45:36;;;;;;;5.83;4.97;;;;;;;16.24;46.13;95177.63;5074768;28;20474;-76
2023/02/19 09:48:09;;;;;;;22.63;6.80;;;;;;;16.19;46.30;95183.41;5075128;28;20454;-76
2023/02/19 09:50:41;;;;;;;7.87;5.90;;;;;;;16.04;46.39;95169.91;5074766;28;20443;-77
2023/02/19 09:53:14;;;;;;;8.87;6.00;;;;;;;16.09;46.57;95172.91;5074731;28;20447;-77
2023/02/19 09:55:43;;;;;;;18.07;6.50;;;;;;;16.19;46.35;95166.66;5074841;28;20992;-77
2023/02/19 09:58:23;;;;;;;11.43;7.10;;;;;;;16.39;46.66;95155.66;5074785;28;20482;-77
2023/02/19 10:00:53;;;;;;;7.77;5.77;;;;;;;16.58;45.49;95157.25;5074188;28;20440;-77
2023/02/19 10:03:29;;;;;;;6.70;5.93;;;;;;;16.65;44.73;95150.31;5075156;28;20453;-76
2023/02/19 10:05:57;;;;;;;11.03;6.37;;;;;;;16.79;46.77;95137.47;5075431;28;20445;-75
2023/02/19 10:08:24;;;;;;;14.57;5.03;;;;;;;16.82;45.68;95131.84;5075553;28;20469;-77
2023/02/19 10:10:53;;;;;;;7.60;5.40;;;;;;;16.83;47.31;95129.03;5074860;28;20448;-77
2023/02/19 10:13:21;;;;;;;12.50;5.43;;;;;;;16.84;47.01;95129.88;5075458;28;20457;-77
2023/02/19 10:15:53;;;;;;;6.83;5.20;;;;;;;16.92;48.80;95121.91;5074959;28;20451;-77
2023/02/19 10:18:22;;;;;;;13.33;6.30;;;;;;;16.97;44.18;95114.31;5075296;28;20549;-77
2023/02/19 10:20:51;;;;;;;7.63;6.07;;;;;;;17.06;44.32;95108.03;5075295;28;20940;-77
2023/02/19 10:23:18;;;;;;;9.73;5.53;;;;;;;17.10;42.82;95100.56;5075374;28;20467;-76
2023/02/19 10:25:49;;;;;;;6.17;5.57;;;;;;;17.10;43.00;95100.56;5075455;28;20811;-76
2023/02/19 10:28:18;;;;;;;12.40;6.13;;;;;;;17.17;43.57;95090.97;5075090;28;20502;-78
2023/02/19 10:30:50;;;;;;;9.00;5.53;;;;;;;17.19;43.34;95087.16;5080196;28;20517;-77
2023/02/19 10:33:19;;;;;;;6.10;5.50;;;;;;;17.15;42.92;95093.78;5094293;28;20501;-75
2023/02/19 10:35:55;;;;;;;8.07;5.60;;;;;;;17.20;42.67;95082.66;5081464;28;20479;-77
2023/02/19 10:38:27;;;;;;;6.23;5.00;;;;;;;17.24;42.44;95070.72;5086375;28;20569;-78
2023/02/19 10:41:04;;;;;;;7.10;6.00;;;;;;;17.22;43.14;95065.59;5094661;28;20475;-77
2023/02/19 10:43:35;;;;;;;6.83;6.13;;;;;;;17.24;43.93;95063.59;5095038;28;20450;-77
2023/02/19 10:46:06;;;;;;;8.37;5.60;;;;;;;17.26;42.49;95061.59;5094324;28;20933;-81
2023/02/19 10:48:37;;;;;;;6.23;5.60;;;;;;;17.26;43.54;95060.78;5095042;28;20453;-76
2023/02/19 10:51:07;;;;;;;5.77;5.23;;;;;;;17.20;42.55;95054.31;5094965;28;20446;-77
2023/02/19 10:53:44;;;;;;;7.77;5.50;;;;;;;17.25;45.13;95041.38;5051637;28;20454;-76
2023/02/19 10:56:14;;;;;;;6.20;5.37;;;;;;;17.23;41.70;95032.78;5090365;28;20452;-76
2023/02/19 10:58:43;;;;;;;15.70;5.40;;;;;;;17.28;41.55;95033.09;5087277;28;20488;-77
2023/02/19 11:01:21;;;;;;;5.73;5.13;;;;;;;17.25;43.08;95032.59;5089470;28;20916;-76
2023/02/19 11:03:50;;;;;;;10.00;5.70;;;;;;;17.22;41.95;95025.81;5080968;28;20460;-77
2023/02/19 11:06:20;;;;;;;11.73;6.23;;;;;;;17.22;42.25;95019.69;5080265;28;20453;-77
2023/02/19 11:08:53;;;;;;;8.63;6.17;;;;;;;17.21;41.53;95015.38;5094493;28;21038;-78
2023/02/19 11:11:26;;;;;;;8.33;5.87;;;;;;;17.10;41.92;95008.59;5094447;28;20446;-77
2023/02/19 11:13:55;;;;;;;6.47;4.93;;;;;;;17.05;41.82;95005.59;5058788;28;20438;-77
2023/02/19 11:16:22;;;;;;;6.20;5.70;;;;;;;17.04;42.30;95003.94;5094716;28;20443;-77
2023/02/19 11:18:56;;;;;;;9.33;5.20;;;;;;;17.10;42.39;94999.81;5094018;28;20815;-77
2023/02/19 11:21:27;;;;;;;12.40;6.20;;;;;;;17.14;41.68;94998.47;5093773;28;21227;-78
2023/02/19 11:23:55;;;;;;;9.10;6.23;;;;;;;17.07;41.76;94994.84;5093571;28;20799;-77
2023/02/19 11:26:25;;;;;;;7.47;5.87;;;;;;;17.18;41.73;94984.72;5093454;28;20532;-76
2023/02/19 11:28:56;;;;;;;9.60;6.10;;;;;;;17.29;44.19;94987.00;5093499;28;20461;-77
2023/02/19 11:31:25;;;;;;;7.40;5.93;;;;;;;17.34;42.16;94973.22;5057637;28;20513;-78
2023/02/19 11:33:57;;;;;;;9.00;7.03;;;;;;;17.31;41.95;94969.09;5093909;28;20517;-77
2023/02/19 11:36:27;;;;;;;6.87;5.63;;;;;;;17.33;42.34;94964.44;5093999;28;20903;-78
2023/02/19 11:38:55;;;;;;;8.30;5.13;;;;;;;17.37;41.80;94964.97;5093250;28;20495;-78
2023/02/19 11:41:36;;;;;;;8.63;5.90;;;;;;;17.34;40.87;94959.97;5093856;28;20443;-77
2023/02/19 11:44:18;;;;;;;8.07;5.70;;;;;;;17.38;40.90;94957.84;5093362;28;20449;-77
2023/02/19 11:46:57;;;;;;;10.60;5.30;;;;;;;17.34;41.41;94955.50;5092923;28;20940;-77
2023/02/19 11:49:39;;;;;;;7.23;4.77;;;;;;;17.30;40.83;94950.69;5093523;28;20446;-78
2023/02/19 11:52:27;;;;;;;6.73;5.37;;;;;;;17.42;40.84;94946.72;5093365;28;20446;-78
2023/02/19 11:54:59;;;;;;;11.20;5.60;;;;;;;17.45;40.27;94942.88;5093277;28;20443;-78
2023/02/19 11:57:40;;;;;;;7.03;5.30;;;;;;;17.48;42.57;94935.41;5093036;28;20502;-77
2023/02/19 12:00:26;;;;;;;7.43;5.27;;;;;;;17.46;40.89;94936.56;5092869;28;20490;-78
2023/02/19 12:03:32;;;;;;;8.20;6.00;;;;;;;17.41;40.28;94936.28;5093187;28;20447;-77
2023/02/19 12:06:15;;;;;;;6.67;6.03;;;;;;;17.39;40.46;94925.00;5050518;28;20447;-78
2023/02/19 12:09:10;;;;;;;8.73;5.90;;;;;;;17.19;40.61;94916.59;5050215;28;20476;-77